createdAt,value
2018-11-29T00:00:05.489Z,-0.2
2018-11-29T00:01:14.645Z,-0.3
2018-11-29T00:02:23.796Z,-0.2
2018-11-29T00:03:32.945Z,-0.2
2018-11-29T00:04:42.126Z,-0.2
2018-11-29T00:05:51.252Z,-0.2
2018-11-29T00:07:00.384Z,-0.3
2018-11-29T00:08:09.576Z,-0.2
2018-11-29T00:09:18.687Z,-0.3
2018-11-29T00:10:27.836Z,-0.3
2018-11-29T00:11:38.681Z,-0.3
2018-11-29T00:12:47.980Z,-0.3
2018-11-29T00:13:57.034Z,-0.3
2018-11-29T00:15:06.121Z,-0.3
2018-11-29T00:16:15.267Z,-0.3
2018-11-29T00:17:24.420Z,-0.3
2018-11-29T00:18:33.565Z,-0.3
2018-11-29T00:19:42.732Z,-0.3
2018-11-29T00:20:51.853Z,-0.4
2018-11-29T00:22:00.988Z,-0.3
2018-11-29T00:23:10.157Z,-0.4
2018-11-29T00:24:19.308Z,-0.4
2018-11-29T00:25:28.441Z,-0.4
2018-11-29T00:26:37.593Z,-0.4
2018-11-29T00:27:46.742Z,-0.4
2018-11-29T00:28:55.885Z,-0.3
2018-11-29T00:30:05.013Z,-0.4
2018-11-29T00:31:14.185Z,-0.4
2018-11-29T00:32:23.310Z,-0.4
2018-11-29T00:33:32.459Z,-0.4
2018-11-29T00:34:41.599Z,-0.4
2018-11-29T00:35:50.743Z,-0.4
2018-11-29T00:36:59.893Z,-0.4
2018-11-29T00:38:09.037Z,-0.4
2018-11-29T00:39:18.188Z,-0.4
2018-11-29T00:40:27.315Z,-0.4
2018-11-29T00:41:36.458Z,-0.5
2018-11-29T00:42:45.621Z,-0.5
2018-11-29T00:43:54.729Z,-0.5
2018-11-29T00:45:03.883Z,-0.5
2018-11-29T00:46:13.021Z,-0.4
2018-11-29T00:47:22.192Z,-0.5
2018-11-29T00:48:31.457Z,-0.5
2018-11-29T00:49:40.491Z,-0.5
2018-11-29T00:50:49.606Z,-0.5
2018-11-29T00:51:58.774Z,-0.5
2018-11-29T00:53:07.870Z,-0.5
2018-11-29T00:54:17.017Z,-0.5
2018-11-29T00:55:26.165Z,-0.5
2018-11-29T00:56:35.363Z,-0.5
2018-11-29T00:57:44.444Z,-0.5
2018-11-29T00:58:53.584Z,-0.5
2018-11-29T01:00:02.858Z,-0.6
2018-11-29T01:01:11.921Z,-0.5
2018-11-29T01:02:21.549Z,-0.6
2018-11-29T01:03:30.165Z,-0.6
2018-11-29T01:04:39.342Z,-0.6
2018-11-29T01:05:48.430Z,-0.6
2018-11-29T01:06:57.732Z,-0.6
2018-11-29T01:08:07.061Z,-0.6
2018-11-29T01:09:15.857Z,-0.6
2018-11-29T01:10:24.993Z,-0.6
2018-11-29T01:11:34.138Z,-0.6
2018-11-29T01:12:43.277Z,-0.6
2018-11-29T01:13:52.430Z,-0.6
2018-11-29T01:15:01.551Z,-0.6
2018-11-29T01:16:10.793Z,-0.6
2018-11-29T01:17:19.836Z,-0.6
2018-11-29T01:18:28.997Z,-0.6
2018-11-29T01:19:38.198Z,-0.6
2018-11-29T01:20:47.260Z,-0.6
2018-11-29T01:21:56.386Z,-0.6
2018-11-29T01:23:05.555Z,-0.6
2018-11-29T01:24:14.685Z,-0.6
2018-11-29T01:25:23.810Z,-0.6
2018-11-29T01:26:33.031Z,-0.7
2018-11-29T01:27:42.607Z,-0.7
2018-11-29T01:28:51.325Z,-0.7
2018-11-29T01:30:00.382Z,-0.7
2018-11-29T01:31:09.521Z,-0.7
2018-11-29T01:32:18.645Z,-0.7
2018-11-29T01:33:27.777Z,-0.7
2018-11-29T01:34:36.927Z,-0.7
2018-11-29T01:35:46.064Z,-0.7
2018-11-29T01:36:55.204Z,-0.7
2018-11-29T01:38:04.333Z,-0.7
2018-11-29T01:39:13.481Z,-0.7
2018-11-29T01:40:22.608Z,-0.7
2018-11-29T01:41:31.746Z,-0.7
2018-11-29T01:42:41.046Z,-0.7
2018-11-29T01:43:50.112Z,-0.8
2018-11-29T01:44:59.160Z,-0.7
2018-11-29T01:46:08.292Z,-0.7
2018-11-29T01:47:17.454Z,-0.8
2018-11-29T01:48:26.603Z,-0.7
2018-11-29T01:49:36.032Z,-0.8
2018-11-29T01:50:44.851Z,-0.8
2018-11-29T01:51:53.980Z,-0.8
2018-11-29T01:53:03.117Z,-0.8
2018-11-29T01:54:12.257Z,-0.8
2018-11-29T01:55:21.939Z,-0.8
2018-11-29T01:56:30.815Z,-0.8
2018-11-29T01:57:39.659Z,-0.8
2018-11-29T01:58:49.356Z,-0.8
2018-11-29T01:59:57.942Z,-0.8
2018-11-29T02:01:07.083Z,-0.8
2018-11-29T02:02:16.213Z,-0.8
2018-11-29T02:03:25.336Z,-0.8
2018-11-29T02:04:34.484Z,-0.8
2018-11-29T02:05:43.604Z,-0.8
2018-11-29T02:06:52.735Z,-0.8
2018-11-29T02:08:01.895Z,-0.8
2018-11-29T02:09:11.091Z,-0.8
2018-11-29T02:10:20.146Z,-0.8
2018-11-29T02:11:29.296Z,-0.8
2018-11-29T02:12:38.421Z,-0.8
2018-11-29T02:13:47.611Z,-0.8
2018-11-29T02:14:56.697Z,-0.8
2018-11-29T02:16:05.827Z,-0.8
2018-11-29T02:17:14.995Z,-0.8
2018-11-29T02:18:24.103Z,-0.7
2018-11-29T02:19:33.246Z,-0.8
2018-11-29T02:20:42.371Z,-0.8
2018-11-29T02:21:51.500Z,-0.7
2018-11-29T02:23:00.663Z,-0.7
2018-11-29T02:24:09.786Z,-0.8
2018-11-29T02:25:18.914Z,-0.8
2018-11-29T02:26:28.062Z,-0.7
2018-11-29T02:27:37.194Z,-0.7
2018-11-29T02:28:46.322Z,-0.7
2018-11-29T02:29:55.461Z,-0.7
2018-11-29T02:31:04.602Z,-0.8
2018-11-29T02:32:13.744Z,-0.7
2018-11-29T02:33:22.862Z,-0.7
2018-11-29T02:34:32.012Z,-0.8
2018-11-29T02:35:41.142Z,-0.7
2018-11-29T02:36:50.268Z,-0.7
2018-11-29T02:37:59.412Z,-0.7
2018-11-29T02:39:08.558Z,-0.8
2018-11-29T02:40:17.698Z,-0.7
2018-11-29T02:41:26.858Z,-0.7
2018-11-29T02:42:35.974Z,-0.7
2018-11-29T02:43:45.095Z,-0.7
2018-11-29T02:44:54.249Z,-0.7
2018-11-29T02:46:03.378Z,-0.7
2018-11-29T02:47:12.579Z,-0.7
2018-11-29T02:48:21.698Z,-0.7
2018-11-29T02:49:30.781Z,-0.7
2018-11-29T02:50:39.926Z,-0.7
2018-11-29T02:51:49.053Z,-0.7
2018-11-29T02:52:58.209Z,-0.7
2018-11-29T02:54:07.346Z,-0.7
2018-11-29T02:55:16.590Z,-0.7
2018-11-29T02:56:26.015Z,-0.7
2018-11-29T02:57:34.751Z,-0.7
2018-11-29T02:58:43.946Z,-0.7
2018-11-29T02:59:53.054Z,-0.7
2018-11-29T03:01:02.169Z,-0.7
2018-11-29T03:02:11.328Z,-0.7
2018-11-29T03:03:20.442Z,-0.7
2018-11-29T03:04:29.583Z,-0.7
2018-11-29T03:05:38.752Z,-0.7
2018-11-29T03:06:47.860Z,-0.7
2018-11-29T03:07:57.050Z,-0.7
2018-11-29T03:09:06.286Z,-0.7
2018-11-29T03:10:15.276Z,-0.7
2018-11-29T03:11:24.426Z,-0.7
2018-11-29T03:12:33.553Z,-0.7
2018-11-29T03:13:42.689Z,-0.7
2018-11-29T03:14:51.828Z,-0.7
2018-11-29T03:16:00.971Z,-0.7
2018-11-29T03:17:10.160Z,-0.7
2018-11-29T03:18:19.243Z,-0.7
2018-11-29T03:19:28.423Z,-0.7
2018-11-29T03:20:37.525Z,-0.8
2018-11-29T03:21:46.680Z,-0.7
2018-11-29T03:22:56.350Z,-0.7
2018-11-29T03:24:04.954Z,-0.8
2018-11-29T03:25:14.090Z,-0.7
2018-11-29T03:26:23.234Z,-0.8
2018-11-29T03:27:32.366Z,-0.8
2018-11-29T03:28:41.492Z,-0.8
2018-11-29T03:29:50.629Z,-0.8
2018-11-29T03:30:59.770Z,-0.7
2018-11-29T03:32:08.908Z,-0.7
2018-11-29T03:33:18.042Z,-0.8
2018-11-29T03:34:27.175Z,-0.8
2018-11-29T03:35:36.320Z,-0.8
2018-11-29T03:36:45.468Z,-0.8
2018-11-29T03:37:54.596Z,-0.8
2018-11-29T03:39:03.715Z,-0.8
2018-11-29T03:40:12.854Z,-0.8
2018-11-29T03:41:21.985Z,-0.8
2018-11-29T03:42:31.127Z,-0.8
2018-11-29T03:43:40.284Z,-0.8
2018-11-29T03:44:49.392Z,-0.8
2018-11-29T03:45:58.543Z,-0.8
2018-11-29T03:47:07.724Z,-0.7
2018-11-29T03:48:16.813Z,-0.8
2018-11-29T03:49:26.104Z,-0.8
2018-11-29T03:50:35.242Z,-0.8
2018-11-29T03:51:44.229Z,-0.8
2018-11-29T03:52:53.437Z,-0.8
2018-11-29T03:54:02.490Z,-0.7
2018-11-29T03:55:11.637Z,-0.8
2018-11-29T03:56:20.794Z,-0.8
2018-11-29T03:57:29.997Z,-0.8
2018-11-29T03:58:39.054Z,-0.8
2018-11-29T03:59:48.202Z,-0.8
2018-11-29T04:00:57.418Z,-0.8
2018-11-29T04:02:06.508Z,-0.8
2018-11-29T04:03:15.604Z,-0.8
2018-11-29T04:04:24.761Z,-0.8
2018-11-29T04:05:35.229Z,-0.8
2018-11-29T04:06:43.019Z,-0.8
2018-11-29T04:07:52.155Z,-0.7
2018-11-29T04:09:01.338Z,-0.8
2018-11-29T04:10:10.522Z,-0.7
2018-11-29T04:11:19.597Z,-0.8
2018-11-29T04:12:28.743Z,-0.7
2018-11-29T04:13:37.846Z,-0.7
2018-11-29T04:14:46.994Z,-0.7
2018-11-29T04:15:56.125Z,-0.7
2018-11-29T04:17:05.283Z,-0.8
2018-11-29T04:18:14.403Z,-0.8
2018-11-29T04:19:23.559Z,-0.7
2018-11-29T04:20:32.681Z,-0.7
2018-11-29T04:21:41.849Z,-0.7
2018-11-29T04:22:50.962Z,-0.7
2018-11-29T04:24:00.088Z,-0.7
2018-11-29T04:25:09.241Z,-0.7
2018-11-29T04:26:18.377Z,-0.7
2018-11-29T04:27:27.594Z,-0.7
2018-11-29T04:28:36.674Z,-0.7
2018-11-29T04:29:45.779Z,-0.7
2018-11-29T04:30:54.915Z,-0.7
2018-11-29T04:32:04.050Z,-0.6
2018-11-29T04:33:13.266Z,-0.7
2018-11-29T04:34:22.323Z,-0.7
2018-11-29T04:35:31.467Z,-0.7
2018-11-29T04:36:40.671Z,-0.7
2018-11-29T04:37:49.749Z,-0.7
2018-11-29T04:38:58.880Z,-0.7
2018-11-29T04:40:08.102Z,-0.7
2018-11-29T04:41:17.155Z,-0.7
2018-11-29T04:42:26.287Z,-0.7
2018-11-29T04:43:35.512Z,-0.7
2018-11-29T04:44:44.581Z,-0.7
2018-11-29T04:45:53.699Z,-0.7
2018-11-29T04:47:02.861Z,-0.7
2018-11-29T04:48:11.994Z,-0.7
2018-11-29T04:49:21.146Z,-0.7
2018-11-29T04:50:30.260Z,-0.7
2018-11-29T04:51:39.767Z,-0.7
2018-11-29T04:52:48.739Z,-0.7
2018-11-29T04:53:57.687Z,-0.7
2018-11-29T04:55:06.819Z,-0.7
2018-11-29T04:56:15.976Z,-0.6
2018-11-29T04:57:25.243Z,-0.7
2018-11-29T04:58:34.237Z,-0.7
2018-11-29T04:59:43.362Z,-0.7
2018-11-29T05:00:52.504Z,-0.6
2018-11-29T05:02:01.675Z,-0.6
2018-11-29T05:03:10.821Z,-0.6
2018-11-29T05:04:19.931Z,-0.7
2018-11-29T05:05:29.069Z,-0.7
2018-11-29T05:06:38.206Z,-0.7
2018-11-29T05:07:47.455Z,-0.6
2018-11-29T05:08:56.510Z,-0.6
2018-11-29T05:10:05.614Z,-0.7
2018-11-29T05:11:14.767Z,-0.7
2018-11-29T05:12:23.900Z,-0.7
2018-11-29T05:13:33.041Z,-0.6
2018-11-29T05:14:42.178Z,-0.6
2018-11-29T05:15:51.324Z,-0.6
2018-11-29T05:17:00.493Z,-0.6
2018-11-29T05:18:09.603Z,-0.7
2018-11-29T05:19:18.807Z,-0.6
2018-11-29T05:20:27.888Z,-0.6
2018-11-29T05:21:37.033Z,-0.6
2018-11-29T05:22:46.154Z,-0.6
2018-11-29T05:23:55.295Z,-0.6
2018-11-29T05:25:04.436Z,-0.6
2018-11-29T05:26:13.739Z,-0.6
2018-11-29T05:27:22.928Z,-0.6
2018-11-29T05:28:32.465Z,-0.6
2018-11-29T05:29:41.420Z,-0.6
2018-11-29T05:30:50.927Z,-0.6
2018-11-29T05:32:00.031Z,-0.6
2018-11-29T05:33:08.579Z,-0.6
2018-11-29T05:34:17.657Z,-0.6
2018-11-29T05:35:26.693Z,-0.6
2018-11-29T05:36:35.849Z,-0.6
2018-11-29T05:37:45.039Z,-0.6
2018-11-29T05:38:54.194Z,-0.6
2018-11-29T05:40:03.501Z,-0.6
2018-11-29T05:41:12.447Z,-0.6
2018-11-29T05:42:21.859Z,-0.6
2018-11-29T05:43:30.897Z,-0.6
2018-11-29T05:44:39.936Z,-0.6
2018-11-29T05:45:48.973Z,-0.6
2018-11-29T05:46:58.123Z,-0.6
2018-11-29T05:48:07.831Z,-0.5
2018-11-29T05:49:16.417Z,-0.6
2018-11-29T05:50:25.595Z,-0.6
2018-11-29T05:51:34.747Z,-0.6
2018-11-29T05:52:43.804Z,-0.5
2018-11-29T05:53:52.948Z,-0.5
2018-11-29T05:55:02.072Z,-0.6
2018-11-29T05:56:11.215Z,-0.6
2018-11-29T05:57:20.366Z,-0.6
2018-11-29T05:58:29.492Z,-0.6
2018-11-29T05:59:38.630Z,-0.6
2018-11-29T06:01:57.003Z,-0.6
2018-11-29T06:03:06.050Z,-0.6
2018-11-29T06:04:15.187Z,-0.5
2018-11-29T06:05:24.335Z,-0.6
2018-11-29T06:06:33.475Z,-0.6
2018-11-29T06:07:42.913Z,-0.6
2018-11-29T06:08:51.756Z,-0.6
2018-11-29T06:10:00.899Z,-0.5
2018-11-29T06:11:10.049Z,-0.6
2018-11-29T06:12:19.197Z,-0.6
2018-11-29T06:13:28.331Z,-0.5
2018-11-29T06:14:37.460Z,-0.6
2018-11-29T06:15:46.591Z,-0.5
2018-11-29T06:16:55.795Z,-0.6
2018-11-29T06:18:04.886Z,-0.5
2018-11-29T06:19:14.018Z,-0.6
2018-11-29T06:20:23.161Z,-0.6
2018-11-29T06:21:32.290Z,-0.6
2018-11-29T06:22:41.464Z,-0.6
2018-11-29T06:23:50.580Z,-0.6
2018-11-29T06:24:59.729Z,-0.6
2018-11-29T06:26:08.859Z,-0.6
2018-11-29T06:27:18.017Z,-0.6
2018-11-29T06:28:27.156Z,-0.6
2018-11-29T06:29:36.311Z,-0.6
2018-11-29T06:30:45.419Z,-0.6
2018-11-29T06:31:54.552Z,-0.6
2018-11-29T06:33:03.699Z,-0.6
2018-11-29T06:34:12.850Z,-0.6
2018-11-29T06:35:21.979Z,-0.6
2018-11-29T06:36:31.122Z,-0.6
2018-11-29T06:37:40.255Z,-0.6
2018-11-29T06:38:49.408Z,-0.5
2018-11-29T06:39:58.557Z,-0.6
2018-11-29T06:41:07.685Z,-0.6
2018-11-29T06:42:16.839Z,-0.5
2018-11-29T06:43:26.002Z,-0.6
2018-11-29T06:44:35.117Z,-0.6
2018-11-29T06:45:44.262Z,-0.6
2018-11-29T06:46:53.394Z,-0.6
2018-11-29T06:48:02.532Z,-0.6
2018-11-29T06:49:11.680Z,-0.5
2018-11-29T06:50:20.850Z,-0.6
2018-11-29T06:51:29.954Z,-0.5
2018-11-29T06:52:39.134Z,-0.6
2018-11-29T06:53:48.262Z,-0.6
2018-11-29T06:54:57.478Z,-0.6
2018-11-29T06:56:06.561Z,-0.6
2018-11-29T06:57:15.708Z,-0.6
2018-11-29T06:58:24.853Z,-0.6
2018-11-29T06:59:34.488Z,-0.6
2018-11-29T07:00:43.090Z,-0.6
2018-11-29T07:01:52.239Z,-0.6
2018-11-29T07:03:01.382Z,-0.6
2018-11-29T07:04:10.523Z,-0.6
2018-11-29T07:05:19.693Z,-0.6
2018-11-29T07:06:28.802Z,-0.6
2018-11-29T07:07:37.953Z,-0.6
2018-11-29T07:08:47.081Z,-0.6
2018-11-29T07:09:56.248Z,-0.6
2018-11-29T07:11:05.363Z,-0.6
2018-11-29T07:12:14.517Z,-0.6
2018-11-29T07:13:23.681Z,-0.6
2018-11-29T07:14:32.785Z,-0.6
2018-11-29T07:15:41.960Z,-0.6
2018-11-29T07:16:51.083Z,-0.6
2018-11-29T07:18:00.222Z,-0.6
2018-11-29T07:19:09.356Z,-0.6
2018-11-29T07:20:18.492Z,-0.6
2018-11-29T07:21:27.656Z,-0.6
2018-11-29T07:22:36.797Z,-0.6
2018-11-29T07:23:45.919Z,-0.6
2018-11-29T07:24:55.068Z,-0.6
2018-11-29T07:26:04.206Z,-0.6
2018-11-29T07:27:13.349Z,-0.6
2018-11-29T07:28:22.492Z,-0.6
2018-11-29T07:29:31.645Z,-0.6
2018-11-29T07:30:40.837Z,-0.6
2018-11-29T07:31:49.935Z,-0.6
2018-11-29T07:32:59.073Z,-0.5
2018-11-29T07:34:08.207Z,-0.5
2018-11-29T07:35:17.361Z,-0.5
2018-11-29T07:36:26.509Z,-0.5
2018-11-29T07:37:35.657Z,-0.5
2018-11-29T07:38:44.787Z,-0.5
2018-11-29T07:39:53.931Z,-0.5
2018-11-29T07:41:03.104Z,-0.6
2018-11-29T07:42:12.225Z,-0.5
2018-11-29T07:43:21.403Z,-0.5
2018-11-29T07:44:30.574Z,-0.5
2018-11-29T07:45:39.677Z,-0.5
2018-11-29T07:46:48.809Z,-0.4
2018-11-29T07:47:57.967Z,-0.4
2018-11-29T07:49:07.094Z,-0.4
2018-11-29T07:50:16.241Z,-0.4
2018-11-29T07:51:25.395Z,-0.4
2018-11-29T07:52:34.602Z,-0.3
2018-11-29T07:53:43.691Z,-0.3
2018-11-29T07:54:52.855Z,-0.2
2018-11-29T07:56:02.013Z,-0.2
2018-11-29T07:57:11.209Z,-0.1
2018-11-29T07:58:20.364Z,-0.2
2018-11-29T07:59:29.446Z,-0.3
2018-11-29T08:00:38.624Z,-0.4
2018-11-29T08:01:47.848Z,-0.4
2018-11-29T08:02:56.929Z,-0.3
2018-11-29T08:04:06.074Z,-0.3
2018-11-29T08:05:15.195Z,-0.4
2018-11-29T08:06:24.357Z,-0.3
2018-11-29T08:07:33.563Z,-0.3
2018-11-29T08:08:42.658Z,-0.4
2018-11-29T08:09:51.823Z,-0.2
2018-11-29T08:11:01.006Z,-0.4
2018-11-29T08:12:10.119Z,-0.4
2018-11-29T08:13:19.315Z,-0.3
2018-11-29T08:14:28.459Z,-0.4
2018-11-29T08:15:37.608Z,-0.3
2018-11-29T08:16:46.881Z,-0.3
2018-11-29T08:17:55.900Z,-0.4
2018-11-29T08:19:05.059Z,-0.2
2018-11-29T08:20:14.207Z,-0.3
2018-11-29T08:21:23.365Z,-0.3
2018-11-29T08:22:32.519Z,-0.2
2018-11-29T08:23:41.680Z,-0.2
2018-11-29T08:24:50.832Z,-0.3
2018-11-29T08:26:00.010Z,-0.2
2018-11-29T08:27:09.164Z,-0.2
2018-11-29T08:28:18.307Z,-0.3
2018-11-29T08:29:27.482Z,-0.2
2018-11-29T08:30:36.656Z,-0.2
2018-11-29T08:31:45.860Z,-0.3
2018-11-29T08:32:54.949Z,-0.2
2018-11-29T08:35:13.273Z,0.1
2018-11-29T08:36:22.427Z,0.4
2018-11-29T08:37:31.595Z,0.3
2018-11-29T08:38:40.916Z,0.4
2018-11-29T08:39:49.933Z,0.3
2018-11-29T08:40:59.089Z,0.2
2018-11-29T08:42:08.249Z,0.2
2018-11-29T08:43:17.423Z,0.4
2018-11-29T08:44:26.618Z,0.7
2018-11-29T08:45:35.760Z,0.4
2018-11-29T08:46:44.941Z,0.3
2018-11-29T08:47:54.104Z,0.2
2018-11-29T08:49:03.401Z,0.3
2018-11-29T08:50:12.444Z,0.2
2018-11-29T08:51:21.612Z,0.2
2018-11-29T08:52:30.792Z,0.3
2018-11-29T08:53:40.015Z,0.2
2018-11-29T08:54:49.762Z,0.1
2018-11-29T08:55:58.317Z,0.1
2018-11-29T08:57:08.010Z,0.1
2018-11-29T08:58:16.658Z,0.2
2018-11-29T08:59:25.954Z,0.1
2018-11-29T09:00:34.965Z,0.1
2018-11-29T09:01:44.151Z,0.2
2018-11-29T09:02:53.319Z,0.2
2018-11-29T09:04:02.477Z,0.1
2018-11-29T09:05:11.662Z,0.1
2018-11-29T09:06:20.852Z,0.2
2018-11-29T09:07:30.417Z,0.2
2018-11-29T09:08:39.171Z,0.2
2018-11-29T09:09:48.346Z,0.3
2018-11-29T09:10:57.523Z,0.3
2018-11-29T09:12:06.836Z,0.3
2018-11-29T09:13:15.865Z,0.3
2018-11-29T09:14:25.021Z,0.4
2018-11-29T09:15:34.185Z,0.3
2018-11-29T09:16:43.376Z,0.3
2018-11-29T09:17:52.545Z,0.4
2018-11-29T09:19:01.722Z,0.4
2018-11-29T09:20:10.881Z,0.5
2018-11-29T09:21:20.048Z,0.4
2018-11-29T09:22:29.253Z,0.4
2018-11-29T09:23:38.415Z,0.4
2018-11-29T09:24:47.631Z,0.5
2018-11-29T09:25:56.772Z,0.5
2018-11-29T09:27:05.916Z,0.6
2018-11-29T09:28:15.106Z,0.7
2018-11-29T09:29:24.294Z,0.7
2018-11-29T09:30:33.463Z,0.7
2018-11-29T09:31:42.740Z,0.7
2018-11-29T09:32:51.820Z,0.7
2018-11-29T09:34:00.995Z,0.6
2018-11-29T09:35:10.181Z,0.6
2018-11-29T09:36:19.346Z,0.6
2018-11-29T09:37:28.527Z,0.7
2018-11-29T09:38:37.815Z,0.7
2018-11-29T09:39:46.894Z,0.8
2018-11-29T09:40:56.070Z,0.7
2018-11-29T09:42:05.261Z,0.6
2018-11-29T09:43:14.456Z,0.8
2018-11-29T09:44:23.632Z,0.8
2018-11-29T09:45:32.811Z,0.8
2018-11-29T09:46:42.004Z,0.8
2018-11-29T09:47:51.187Z,0.7
2018-11-29T09:49:00.358Z,0.9
2018-11-29T09:50:09.539Z,1
2018-11-29T09:51:18.729Z,0.8
2018-11-29T09:52:27.906Z,1
2018-11-29T09:53:37.108Z,1
2018-11-29T09:54:46.264Z,1
2018-11-29T09:55:55.474Z,1
2018-11-29T09:57:04.656Z,1
2018-11-29T09:58:14.003Z,1.1
2018-11-29T09:59:23.042Z,1
2018-11-29T10:00:32.197Z,1.2
2018-11-29T10:01:41.577Z,1.2
2018-11-29T10:02:50.575Z,1.1
2018-11-29T10:03:59.748Z,1.1
2018-11-29T10:05:08.929Z,1.1
2018-11-29T10:06:18.136Z,1.2
2018-11-29T10:07:27.308Z,1.1
2018-11-29T10:08:36.500Z,1
2018-11-29T10:09:45.773Z,1.2
2018-11-29T10:10:54.891Z,1.1
2018-11-29T10:12:04.055Z,1
2018-11-29T10:13:13.245Z,1.1
2018-11-29T10:14:22.425Z,1.2
2018-11-29T10:15:31.632Z,1.2
2018-11-29T10:16:40.876Z,1.2
2018-11-29T10:17:50.036Z,1.4
2018-11-29T10:18:59.197Z,1.4
2018-11-29T10:20:08.402Z,1.4
2018-11-29T10:21:17.697Z,1.7
2018-11-29T10:22:26.771Z,1.7
2018-11-29T10:23:35.950Z,1.7
2018-11-29T10:24:45.160Z,1.7
2018-11-29T10:25:54.343Z,1.7
2018-11-29T10:27:03.546Z,1.7
2018-11-29T10:28:12.736Z,1.5
2018-11-29T10:29:21.939Z,1.6
2018-11-29T10:30:31.141Z,1.8
2018-11-29T10:31:40.352Z,1.7
2018-11-29T10:32:49.528Z,1.9
2018-11-29T10:33:58.789Z,2
2018-11-29T10:35:08.105Z,1.9
2018-11-29T10:36:17.147Z,1.8
2018-11-29T10:37:26.459Z,1.7
2018-11-29T10:38:35.550Z,1.8
2018-11-29T10:39:44.853Z,1.7
2018-11-29T10:40:53.964Z,2
2018-11-29T10:42:03.239Z,2
2018-11-29T10:43:12.421Z,2.1
2018-11-29T10:44:21.590Z,2.2
2018-11-29T10:45:30.820Z,2.2
2018-11-29T10:46:40.071Z,2.3
2018-11-29T10:47:52.126Z,2.1
2018-11-29T10:48:58.454Z,2.2
2018-11-29T10:50:07.686Z,2.1
2018-11-29T10:51:16.877Z,2.2
2018-11-29T10:52:26.123Z,2.6
2018-11-29T10:53:37.112Z,2.6
2018-11-29T10:54:44.528Z,2.5
2018-11-29T10:55:53.754Z,2.4
2018-11-29T10:57:02.976Z,2.2
2018-11-29T10:58:12.326Z,2.2
2018-11-29T10:59:21.412Z,2.3
2018-11-29T11:00:30.781Z,2.1
2018-11-29T11:01:39.851Z,2.1
2018-11-29T11:02:49.074Z,2
2018-11-29T11:03:58.286Z,2.2
2018-11-29T11:05:07.499Z,2.3
2018-11-29T11:06:16.729Z,2.2
2018-11-29T11:07:25.971Z,2.2
2018-11-29T11:08:35.165Z,2.2
2018-11-29T11:09:44.386Z,2.3
2018-11-29T11:10:53.597Z,2.3
2018-11-29T11:12:02.868Z,2.2
2018-11-29T11:13:12.041Z,2.4
2018-11-29T11:14:21.251Z,2.2
2018-11-29T11:15:30.465Z,2.3
2018-11-29T11:16:39.677Z,2.5
2018-11-29T11:17:48.902Z,2.7
2018-11-29T11:18:58.239Z,2.6
2018-11-29T11:20:07.347Z,2.4
2018-11-29T11:21:16.629Z,2.4
2018-11-29T11:22:25.885Z,2.5
2018-11-29T11:23:34.996Z,2.6
2018-11-29T11:24:44.245Z,2.6
2018-11-29T11:25:53.511Z,2.6
2018-11-29T11:27:02.670Z,2.7
2018-11-29T11:28:11.918Z,2.8
2018-11-29T11:29:21.127Z,2.7
2018-11-29T11:30:30.329Z,2.9
2018-11-29T11:31:39.582Z,3
2018-11-29T11:32:48.798Z,2.8
2018-11-29T11:33:58.008Z,2.7
2018-11-29T11:35:07.242Z,2.7
2018-11-29T11:36:16.483Z,2.9
2018-11-29T11:37:25.813Z,2.9
2018-11-29T11:38:34.935Z,2.9
2018-11-29T11:39:44.179Z,3
2018-11-29T11:40:53.390Z,2.8
2018-11-29T11:42:02.605Z,2.8
2018-11-29T11:43:11.937Z,2.7
2018-11-29T11:44:21.094Z,2.9
2018-11-29T11:45:30.298Z,3
2018-11-29T11:46:40.115Z,3
2018-11-29T11:47:48.856Z,3.1
2018-11-29T11:48:58.010Z,3.1
2018-11-29T11:50:10.736Z,3
2018-11-29T11:51:16.463Z,2.9
2018-11-29T11:52:25.767Z,2.8
2018-11-29T11:53:34.921Z,2.8
2018-11-29T11:54:44.157Z,2.8
2018-11-29T11:55:53.799Z,3
2018-11-29T11:57:02.628Z,2.9
2018-11-29T11:58:12.021Z,2.8
2018-11-29T11:59:21.196Z,2.8
2018-11-29T12:00:30.316Z,2.7
2018-11-29T12:01:39.630Z,2.8
2018-11-29T12:02:48.790Z,2.9
2018-11-29T12:03:58.033Z,2.8
2018-11-29T12:05:07.264Z,2.9
2018-11-29T12:06:16.495Z,2.9
2018-11-29T12:07:25.841Z,2.9
2018-11-29T12:08:34.956Z,3
2018-11-29T12:09:44.217Z,3
2018-11-29T12:10:53.415Z,2.8
2018-11-29T12:12:02.694Z,2.9
2018-11-29T12:13:11.978Z,2.9
2018-11-29T12:14:21.157Z,2.8
2018-11-29T12:15:30.348Z,2.9
2018-11-29T12:16:39.641Z,2.8
2018-11-29T12:17:49.176Z,3
2018-11-29T12:19:02.207Z,3
2018-11-29T12:20:07.282Z,3
2018-11-29T12:21:16.514Z,3.2
2018-11-29T12:22:25.799Z,3.2
2018-11-29T12:23:34.981Z,3.2
2018-11-29T12:24:44.283Z,3
2018-11-29T12:25:53.444Z,3
2018-11-29T12:27:02.696Z,3
2018-11-29T12:28:11.970Z,3
2018-11-29T12:29:21.188Z,3
2018-11-29T12:30:31.261Z,3.1
2018-11-29T12:31:39.633Z,3
2018-11-29T12:32:48.871Z,2.9
2018-11-29T12:33:58.100Z,3
2018-11-29T12:35:07.359Z,3
2018-11-29T12:36:16.582Z,3
2018-11-29T12:37:25.851Z,3.2
2018-11-29T12:38:35.074Z,3
2018-11-29T12:39:44.278Z,3
2018-11-29T12:40:53.520Z,3
2018-11-29T12:42:02.746Z,3
2018-11-29T12:43:12.081Z,2.9
2018-11-29T12:44:21.270Z,2.9
2018-11-29T12:45:30.445Z,3.1
2018-11-29T12:46:39.686Z,3
2018-11-29T12:47:48.961Z,3
2018-11-29T12:48:58.155Z,3
2018-11-29T12:50:07.397Z,3
2018-11-29T12:51:16.804Z,3.1
2018-11-29T12:52:25.890Z,3.1
2018-11-29T12:53:35.100Z,3.1
2018-11-29T12:54:44.419Z,3
2018-11-29T12:55:53.557Z,3.1
2018-11-29T12:57:02.786Z,3.1
2018-11-29T12:58:12.022Z,3
2018-11-29T12:59:21.279Z,3.2
2018-11-29T13:00:30.584Z,3.2
2018-11-29T13:01:39.723Z,3.2
2018-11-29T13:02:48.958Z,3.2
2018-11-29T13:03:58.235Z,3.2
2018-11-29T13:05:07.438Z,3.2
2018-11-29T13:06:16.677Z,3.3
2018-11-29T13:07:25.915Z,3.3
2018-11-29T13:08:35.190Z,3.3
2018-11-29T13:09:44.393Z,3.3
2018-11-29T13:10:53.622Z,3.3
2018-11-29T13:12:02.893Z,3.3
2018-11-29T13:13:12.151Z,3.3
2018-11-29T13:14:21.414Z,3.4
2018-11-29T13:15:30.738Z,3.4
2018-11-29T13:16:39.837Z,3.3
2018-11-29T13:17:49.047Z,3.3
2018-11-29T13:18:58.303Z,3.4
2018-11-29T13:20:07.549Z,3.4
2018-11-29T13:21:16.794Z,3.5
2018-11-29T13:22:26.033Z,3.5
2018-11-29T13:23:35.263Z,3.3
2018-11-29T13:24:44.501Z,3.4
2018-11-29T13:25:53.734Z,3.4
2018-11-29T13:27:02.980Z,3.5
2018-11-29T13:28:12.447Z,3.5
2018-11-29T13:29:21.459Z,3.5
2018-11-29T13:30:30.705Z,3.5
2018-11-29T13:31:39.952Z,3.4
2018-11-29T13:32:49.163Z,3.4
2018-11-29T13:33:58.433Z,3.4
2018-11-29T13:35:07.678Z,3.4
2018-11-29T13:36:16.928Z,3.5
2018-11-29T13:37:26.201Z,3.5
2018-11-29T13:38:35.415Z,3.5
2018-11-29T13:39:44.626Z,3.5
2018-11-29T13:40:53.941Z,3.5
2018-11-29T13:42:03.087Z,3.5
2018-11-29T13:43:12.335Z,3.5
2018-11-29T13:44:21.580Z,3.5
2018-11-29T13:45:30.854Z,3.6
2018-11-29T13:46:40.047Z,3.6
2018-11-29T13:47:49.326Z,3.6
2018-11-29T13:48:58.533Z,3.6
2018-11-29T13:50:07.762Z,3.5
2018-11-29T13:51:17.014Z,3.5
2018-11-29T13:52:26.247Z,3.5
2018-11-29T13:53:35.519Z,3.5
2018-11-29T13:54:44.732Z,3.5
2018-11-29T13:55:53.973Z,3.5
2018-11-29T13:57:03.218Z,3.5
2018-11-29T13:58:12.422Z,3.5
2018-11-29T13:59:21.668Z,3.6
2018-11-29T14:00:30.903Z,3.5
2018-11-29T14:01:40.159Z,3.6
2018-11-29T14:02:49.379Z,3.5
2018-11-29T14:03:58.606Z,3.6
2018-11-29T14:05:07.834Z,3.5
2018-11-29T14:06:17.094Z,3.6
2018-11-29T14:07:26.301Z,3.6
2018-11-29T14:08:35.544Z,3.6
2018-11-29T14:09:44.787Z,3.5
2018-11-29T14:10:53.999Z,3.5
2018-11-29T14:12:03.237Z,3.5
2018-11-29T14:13:12.469Z,3.5
2018-11-29T14:14:21.742Z,3.5
2018-11-29T14:15:30.944Z,3.5
2018-11-29T14:16:40.203Z,3.5
2018-11-29T14:17:49.415Z,3.6
2018-11-29T14:18:58.669Z,3.5
2018-11-29T14:20:07.951Z,3.5
2018-11-29T14:21:17.133Z,3.6
2018-11-29T14:22:26.360Z,3.6
2018-11-29T14:23:35.596Z,3.5
2018-11-29T14:24:44.823Z,3.5
2018-11-29T14:25:54.097Z,3.5
2018-11-29T14:27:03.327Z,3.5
2018-11-29T14:28:12.527Z,3.6
2018-11-29T14:29:21.764Z,3.5
2018-11-29T14:30:31.005Z,3.5
2018-11-29T14:31:40.226Z,3.5
2018-11-29T14:32:50.905Z,3.5
2018-11-29T14:34:00.149Z,3.6
2018-11-29T14:35:09.393Z,3.6
2018-11-29T14:36:18.631Z,3.6
2018-11-29T14:37:27.849Z,3.6
2018-11-29T14:38:37.071Z,3.6
2018-11-29T14:39:46.306Z,3.6
2018-11-29T14:40:55.546Z,3.6
2018-11-29T14:42:04.764Z,3.6
2018-11-29T14:43:13.999Z,3.6
2018-11-29T14:44:23.235Z,3.6
2018-11-29T14:45:32.460Z,3.6
2018-11-29T14:46:41.693Z,3.6
2018-11-29T14:47:50.924Z,3.6
2018-11-29T14:49:00.183Z,3.5
2018-11-29T14:50:09.436Z,3.5
2018-11-29T14:51:18.647Z,3.5
2018-11-29T14:52:27.861Z,3.5
2018-11-29T14:53:37.165Z,3.5
2018-11-29T14:54:46.315Z,3.5
2018-11-29T14:55:55.551Z,3.5
2018-11-29T14:57:04.788Z,3.5
2018-11-29T14:58:19.352Z,3.5
2018-11-29T14:59:23.240Z,3.5
2018-11-29T15:00:32.473Z,3.5
2018-11-29T15:01:41.823Z,3.5
2018-11-29T15:02:50.934Z,3.5
2018-11-29T15:04:00.208Z,3.5
2018-11-29T15:05:09.408Z,3.4
2018-11-29T15:06:18.687Z,3.4
2018-11-29T15:07:27.857Z,3.4
2018-11-29T15:08:37.082Z,3.4
2018-11-29T15:09:46.320Z,3.4
2018-11-29T15:10:55.543Z,3.4
2018-11-29T15:12:04.794Z,3.4
2018-11-29T15:13:14.030Z,3.4
2018-11-29T15:14:23.217Z,3.4
2018-11-29T15:15:32.492Z,3.4
2018-11-29T15:16:41.831Z,3.3
2018-11-29T15:17:50.907Z,3.4
2018-11-29T15:19:00.122Z,3.4
2018-11-29T15:20:09.658Z,3.4
2018-11-29T15:21:18.565Z,3.4
2018-11-29T15:22:27.791Z,3.4
2018-11-29T15:23:37.130Z,3.3
2018-11-29T15:24:46.513Z,3.4
2018-11-29T15:25:55.524Z,3.3
2018-11-29T15:27:04.714Z,3.4
2018-11-29T15:28:13.946Z,3.4
2018-11-29T15:29:23.154Z,3.3
2018-11-29T15:30:32.457Z,3.3
2018-11-29T15:31:41.635Z,3.3
2018-11-29T15:32:50.832Z,3.4
2018-11-29T15:34:00.073Z,3.4
2018-11-29T15:35:09.279Z,3.4
2018-11-29T15:36:18.514Z,3.4
2018-11-29T15:37:27.760Z,3.4
2018-11-29T15:38:36.962Z,3.4
2018-11-29T15:39:46.193Z,3.3